Time;durP1;ratioP1;P1;durP2;ratioP2;P2;SDS_P1;SDS_P2;PMS_P1;PMS_P2;Temp;Humidity;BMP_temperature;BMP_pressure;BME280_temperature;BME280_humidity;BME280_pressure;Samples;Min_cycle;Max_cycle;Signal;HPM_P1;HPM_P2
2022/08/13 00:00:35;;;;;;;23.67;17.33;;;17.90;99.90;;;;;;5072832;28;20499;-79
2022/08/13 00:03:05;;;;;;;21.90;17.67;;;17.70;99.90;;;;;;5061499;28;20099;-80
2022/08/13 00:05:32;;;;;;;26.83;19.52;;;17.80;99.90;;;;;;5060184;28;20063;-80
2022/08/13 00:07:59;;;;;;;18.27;15.45;;;17.70;99.90;;;;;;5080435;28;20043;-79
2022/08/13 00:10:28;;;;;;;22.38;16.65;;;17.70;99.90;;;;;;5082099;28;20052;-79
2022/08/13 00:12:58;;;;;;;22.85;17.42;;;17.70;99.90;;;;;;5063705;28;20112;-79
2022/08/13 00:15:29;;;;;;;23.52;17.95;;;17.70;99.90;;;;;;5081304;28;20059;-79
2022/08/13 00:17:59;;;;;;;25.73;19.48;;;17.70;99.90;;;;;;5070188;28;20064;-79
2022/08/13 00:20:29;;;;;;;24.85;20.73;;;17.70;99.90;;;;;;5058028;28;20072;-79
2022/08/13 00:22:58;;;;;;;28.58;21.70;;;17.80;99.90;;;;;;5054682;28;20041;-79
2022/08/13 00:25:26;;;;;;;19.65;17.50;;;17.90;99.90;;;;;;5062522;28;20040;-78
2022/08/13 00:27:57;;;;;;;25.48;19.42;;;17.80;99.90;;;;;;5062217;28;20041;-79
2022/08/13 00:30:30;;;;;;;20.73;17.85;;;17.80;99.90;;;;;;5078282;28;20040;-79
2022/08/13 00:32:59;;;;;;;19.08;15.95;;;17.70;99.90;;;;;;5074248;28;20048;-79
2022/08/13 00:35:28;;;;;;;20.98;16.27;;;17.70;99.90;;;;;;5083269;28;20044;-79
2022/08/13 00:37:57;;;;;;;21.15;16.48;;;17.60;99.90;;;;;;5082066;28;20535;-79
2022/08/13 00:40:25;;;;;;;21.23;15.65;;;17.50;99.90;;;;;;5084313;28;20066;-79
2022/08/13 00:42:53;;;;;;;22.35;17.98;;;17.50;99.90;;;;;;5083491;28;20048;-79
2022/08/13 00:45:21;;;;;;;19.85;17.30;;;17.50;99.90;;;;;;5064610;28;20053;-79
2022/08/13 00:50:35;;;;;;;24.92;20.05;;;17.30;99.90;;;;;;5080326;28;20055;-79
2022/08/13 00:53:03;;;;;;;24.52;21.23;;;17.30;99.90;;;;;;5083448;28;20051;-79
2022/08/13 00:55:31;;;;;;;29.15;23.52;;;17.30;99.90;;;;;;5074189;28;20045;-79
2022/08/13 00:57:59;;;;;;;27.40;23.58;;;17.40;99.90;;;;;;5044132;28;20127;-79
2022/08/13 01:00:27;;;;;;;27.55;23.65;;;17.40;99.90;;;;;;5059088;28;20060;-80
2022/08/13 01:02:58;;;;;;;27.52;20.85;;;17.40;99.90;;;;;;5075888;28;20094;-79
2022/08/13 01:05:26;;;;;;;24.45;20.60;;;17.30;99.90;;;;;;5082386;28;20415;-78
2022/08/13 01:07:55;;;;;;;26.23;22.20;;;17.30;99.90;;;;;;5079631;28;20041;-78
2022/08/13 01:10:22;;;;;;;32.53;24.67;;;17.30;99.90;;;;;;5080137;28;20115;-79
2022/08/13 01:12:52;;;;;;;33.33;26.20;;;17.30;99.90;;;;;;5076787;28;20053;-79
2022/08/13 01:15:23;;;;;;;40.75;30.67;;;17.30;99.90;;;;;;5058488;28;20414;-79
2022/08/13 01:17:53;;;;;;;34.28;28.42;;;17.40;99.90;;;;;;5053956;28;20041;-79
2022/08/13 01:20:26;;;;;;;31.42;26.45;;;17.40;99.90;;;;;;5060599;28;20072;-78
2022/08/13 01:22:55;;;;;;;28.58;25.27;;;17.40;99.90;;;;;;5060611;28;20053;-78
2022/08/13 01:25:25;;;;;;;29.63;25.90;;;17.40;99.90;;;;;;5061989;28;20428;-78
2022/08/13 01:27:54;;;;;;;27.40;23.20;;;17.30;99.90;;;;;;5065606;28;20114;-79
2022/08/13 01:30:23;;;;;;;27.55;22.65;;;17.30;99.90;;;;;;5055278;28;20045;-80
2022/08/13 01:32:51;;;;;;;21.77;17.48;;;17.30;99.90;;;;;;5088041;28;20078;-79
2022/08/13 01:35:20;;;;;;;22.85;18.38;;;17.30;99.90;;;;;;5070159;28;20044;-80
2022/08/13 01:37:57;;;;;;;25.25;21.63;;;17.20;99.90;;;;;;5087750;28;20434;-79
2022/08/13 01:40:30;;;;;;;31.17;25.55;;;17.20;99.90;;;;;;5056495;28;20136;-79
2022/08/13 01:42:58;;;;;;;23.95;21.08;;;17.30;99.90;;;;;;5067761;28;20086;-79
2022/08/13 01:45:27;;;;;;;22.13;19.83;;;17.40;99.90;;;;;;5069347;28;20056;-79
2022/08/13 01:50:39;;;;;;;26.38;22.73;;;17.40;99.90;;;;;;5085359;28;20075;-79
2022/08/13 01:53:08;;;;;;;28.02;23.27;;;17.40;99.90;;;;;;5067397;28;20048;-79
2022/08/13 01:55:39;;;;;;;27.42;24.33;;;17.40;99.90;;;;;;5076926;28;20045;-79
2022/08/13 01:58:09;;;;;;;30.98;26.20;;;17.40;99.90;;;;;;5068464;28;20069;-79
2022/08/13 02:00:37;;;;;;;30.60;27.35;;;17.40;99.90;;;;;;5069188;28;20049;-79
2022/08/13 02:03:09;;;;;;;28.67;25.55;;;17.40;99.90;;;;;;5069784;28;20041;-79
2022/08/13 02:05:38;;;;;;;27.38;23.85;;;17.40;99.90;;;;;;5068793;28;20037;-79
2022/08/13 02:08:06;;;;;;;28.95;24.08;;;17.40;99.90;;;;;;5047734;28;20053;-79
2022/08/13 02:10:35;;;;;;;24.42;21.88;;;17.40;99.90;;;;;;5065264;28;20104;-79
2022/08/13 02:13:06;;;;;;;26.08;23.38;;;17.30;99.90;;;;;;5048519;28;20052;-79
2022/08/13 02:15:33;;;;;;;26.80;24.02;;;17.30;99.90;;;;;;5082186;28;20045;-79
2022/08/13 02:18:03;;;;;;;29.00;25.52;;;17.30;99.90;;;;;;5055144;28;20536;-79
2022/08/13 02:20:32;;;;;;;27.48;24.55;;;17.30;99.90;;;;;;5062916;28;20037;-78
2022/08/13 02:23:00;;;;;;;29.95;25.75;;;17.30;99.90;;;;;;5063287;28;20067;-79
2022/08/13 02:25:30;;;;;;;27.38;24.48;;;17.30;99.90;;;;;;5045102;28;20055;-78
2022/08/13 02:27:58;;;;;;;24.88;22.25;;;17.30;99.90;;;;;;5063175;28;20063;-78
2022/08/13 02:30:29;;;;;;;26.88;21.52;;;17.30;99.90;;;;;;5079595;28;20092;-79
2022/08/13 02:33:00;;;;;;;26.30;22.63;;;17.30;99.90;;;;;;5075243;28;20040;-79
2022/08/13 02:35:28;;;;;;;24.50;21.85;;;17.30;99.90;;;;;;5082956;28;20511;-78
2022/08/13 02:37:56;;;;;;;24.48;21.83;;;17.30;99.90;;;;;;5079386;28;20127;-78
2022/08/13 02:43:08;;;;;;;26.42;21.35;;;17.30;99.90;;;;;;5077445;28;20070;-79
2022/08/13 02:45:38;;;;;;;24.65;21.50;;;17.30;99.90;;;;;;5084079;28;20045;-79
2022/08/13 02:48:06;;;;;;;24.88;21.35;;;17.30;99.90;;;;;;5083068;28;20119;-79
2022/08/13 02:50:42;;;;;;;29.02;23.38;;;17.20;99.90;;;;;;5064634;28;20044;-79
2022/08/13 02:53:13;;;;;;;29.50;23.85;;;17.20;99.90;;;;;;5082733;28;20411;-78
2022/08/13 02:55:42;;;;;;;28.70;23.77;;;17.20;99.90;;;;;;5063614;28;20056;-78
2022/08/13 02:58:09;;;;;;;32.50;26.38;;;17.20;99.90;;;;;;5062214;28;20048;-79
2022/08/13 03:00:41;;;;;;;32.38;26.17;;;17.20;99.90;;;;;;5063373;28;20037;-79
2022/08/13 03:03:09;;;;;;;29.42;26.13;;;17.20;99.90;;;;;;5064199;28;20064;-78
2022/08/13 03:05:37;;;;;;;30.45;25.92;;;17.20;99.90;;;;;;5063616;28;20044;-79
2022/08/13 03:08:04;;;;;;;32.17;25.45;;;17.20;99.90;;;;;;5082488;28;20055;-79
2022/08/13 03:10:32;;;;;;;29.65;24.05;;;17.20;99.90;;;;;;5083220;28;20115;-79
2022/08/13 03:13:02;;;;;;;31.80;25.33;;;17.20;99.90;;;;;;5082167;28;20047;-79
2022/08/13 03:15:30;;;;;;;33.58;25.63;;;17.20;99.90;;;;;;5082210;28;20045;-79
2022/08/13 03:17:59;;;;;;;35.47;24.85;;;17.20;99.90;;;;;;5072463;28;20103;-79
2022/08/13 03:20:27;;;;;;;32.72;26.75;;;17.20;99.90;;;;;;5041326;28;20037;-79
2022/08/13 03:22:56;;;;;;;36.08;26.67;;;17.20;99.90;;;;;;5055697;28;20045;-78
2022/08/13 03:25:29;;;;;;;36.28;27.40;;;17.20;99.90;;;;;;5082599;28;20578;-79
2022/08/13 03:27:58;;;;;;;39.83;27.88;;;17.10;99.90;;;;;;5082756;28;20467;-79
2022/08/13 03:30:27;;;;;;;40.58;28.80;;;17.20;99.90;;;;;;5082173;28;20037;-79
2022/08/13 03:32:55;;;;;;;37.80;26.80;;;17.20;99.90;;;;;;5082811;28;20076;-79
2022/08/13 03:35:26;;;;;;;40.10;28.58;;;17.20;99.90;;;;;;5073171;28;20068;-79
2022/08/13 03:37:55;;;;;;;39.70;27.48;;;17.20;99.90;;;;;;5063213;28;20428;-79
2022/08/13 03:40:24;;;;;;;40.58;27.23;;;17.20;99.90;;;;;;5062621;28;20048;-79
2022/08/13 03:42:53;;;;;;;41.33;28.95;;;17.20;99.90;;;;;;5044512;28;20056;-79
2022/08/13 03:45:24;;;;;;;39.00;27.25;;;17.30;99.90;;;;;;5061956;28;20068;-79
2022/08/13 03:47:51;;;;;;;40.00;28.90;;;17.30;99.90;;;;;;5067382;28;20110;-79
2022/08/13 03:50:23;;;;;;;44.70;29.75;;;17.30;99.90;;;;;;5081918;28;20064;-78
2022/08/13 03:52:51;;;;;;;44.75;30.02;;;17.30;99.90;;;;;;5049629;28;20131;-77
2022/08/13 03:55:18;;;;;;;53.53;32.40;;;17.30;99.90;;;;;;5049966;28;20076;-77
2022/08/13 03:57:46;;;;;;;41.28;29.10;;;17.30;99.90;;;;;;5035214;28;20156;-77
2022/08/13 04:00:14;;;;;;;42.38;28.92;;;17.30;99.90;;;;;;5033887;28;20431;-77
2022/08/13 04:02:42;;;;;;;40.95;28.45;;;17.30;99.90;;;;;;5035024;28;20124;-77
2022/08/13 04:05:13;;;;;;;44.58;29.30;;;17.30;99.90;;;;;;5035379;28;20053;-77
2022/08/13 04:07:41;;;;;;;40.13;28.42;;;17.30;99.90;;;;;;5035477;28;20091;-77
2022/08/13 04:10:11;;;;;;;39.70;28.02;;;17.30;99.90;;;;;;5017845;28;20113;-77
2022/08/13 04:12:39;;;;;;;35.72;26.48;;;17.30;99.90;;;;;;5035268;28;20130;-77
2022/08/13 04:15:08;;;;;;;33.85;24.13;;;17.30;99.90;;;;;;5035352;28;20048;-77
2022/08/13 04:17:36;;;;;;;46.75;28.95;;;17.30;99.90;;;;;;5035301;28;20084;-77
2022/08/13 04:20:05;;;;;;;44.03;31.25;;;17.20;99.90;;;;;;5033869;28;20096;-77
2022/08/13 04:22:33;;;;;;;46.53;30.67;;;17.20;99.90;;;;;;5034059;28;20477;-77
2022/08/13 04:25:04;;;;;;;42.92;29.40;;;17.20;99.90;;;;;;5034430;28;20132;-77
2022/08/13 04:27:32;;;;;;;42.00;30.00;;;17.20;99.90;;;;;;5033776;28;20493;-77
2022/08/13 04:30:00;;;;;;;44.92;30.73;;;17.20;99.90;;;;;;5061657;28;20049;-77
2022/08/13 04:32:29;;;;;;;35.67;24.98;;;17.20;99.90;;;;;;5053342;28;20512;-77
2022/08/13 04:34:56;;;;;;;32.65;25.52;;;17.20;99.90;;;;;;5042467;28;20416;-77
2022/08/13 04:37:24;;;;;;;34.97;24.55;;;17.20;99.90;;;;;;5049852;28;20049;-77
2022/08/13 04:39:52;;;;;;;31.17;24.10;;;17.20;99.90;;;;;;5033962;28;20513;-77
2022/08/13 04:42:22;;;;;;;31.20;25.73;;;17.20;99.90;;;;;;5033357;28;20123;-77
2022/08/13 04:44:49;;;;;;;33.78;26.55;;;17.20;99.90;;;;;;5049078;28;20054;-77
2022/08/13 04:47:17;;;;;;;38.25;29.02;;;17.20;99.90;;;;;;5033137;28;20060;-77
2022/08/13 04:49:48;;;;;;;39.58;28.77;;;17.20;99.90;;;;;;5033207;28;20041;-77
2022/08/13 04:52:15;;;;;;;41.38;28.27;;;17.30;99.90;;;;;;5048299;28;20061;-77
2022/08/13 04:54:43;;;;;;;36.83;28.45;;;17.30;99.90;;;;;;5032805;28;20095;-77
2022/08/13 04:57:10;;;;;;;38.70;29.75;;;17.30;99.90;;;;;;5032909;28;20096;-77
2022/08/13 04:59:39;;;;;;;40.08;27.50;;;17.30;99.90;;;;;;5033070;28;20430;-77
2022/08/13 05:02:06;;;;;;;36.85;27.23;;;17.30;99.90;;;;;;5032531;28;20046;-77
2022/08/13 05:04:34;;;;;;;39.72;28.08;;;17.20;99.90;;;;;;5031446;28;20057;-77
2022/08/13 05:07:01;;;;;;;32.65;26.15;;;17.30;99.90;;;;;;5033124;28;20045;-77
2022/08/13 05:09:28;;;;;;;30.52;25.75;;;17.30;99.90;;;;;;5032857;28;20120;-77
2022/08/13 05:11:56;;;;;;;28.40;23.73;;;17.30;99.90;;;;;;5032995;28;20045;-77
2022/08/13 05:14:24;;;;;;;28.95;25.70;;;17.30;99.90;;;;;;5032712;28;20061;-76
2022/08/13 05:16:53;;;;;;;28.63;25.60;;;17.30;99.90;;;;;;5033476;28;20041;-77
2022/08/13 05:19:20;;;;;;;29.73;22.92;;;17.30;99.90;;;;;;5032989;28;20033;-77
2022/08/13 05:21:48;;;;;;;25.98;21.70;;;17.40;99.90;;;;;;5032874;28;20467;-76
2022/08/13 05:24:15;;;;;;;26.23;22.27;;;17.40;99.90;;;;;;5033272;28;20065;-77
2022/08/13 05:26:42;;;;;;;24.13;20.95;;;17.40;99.90;;;;;;5015078;28;20048;-77
2022/08/13 05:29:09;;;;;;;24.13;20.80;;;17.40;99.90;;;;;;5039275;28;20128;-76
2022/08/13 05:31:38;;;;;;;22.92;20.02;;;17.50;99.90;;;;;;5034714;28;20049;-76
2022/08/13 05:34:07;;;;;;;26.80;21.75;;;17.50;99.90;;;;;;5035523;28;20416;-77
2022/08/13 05:36:39;;;;;;;25.83;21.27;;;17.50;99.90;;;;;;5037835;28;20067;-77
2022/08/13 05:39:06;;;;;;;26.00;20.33;;;17.40;99.90;;;;;;5057372;28;20136;-77
2022/08/13 05:41:33;;;;;;;43.65;27.65;;;17.40;99.90;;;;;;5046566;28;20041;-77
2022/08/13 05:44:01;;;;;;;39.95;26.92;;;17.50;99.90;;;;;;5051085;28;20045;-77
2022/08/13 05:46:28;;;;;;;36.35;22.77;;;17.50;99.90;;;;;;5048484;28;20045;-77
2022/08/13 05:48:58;;;;;;;37.60;25.33;;;17.50;99.90;;;;;;5045225;28;20053;-77
2022/08/13 05:51:31;;;;;;;45.70;26.58;;;17.60;99.90;;;;;;5054287;28;20053;-77
2022/08/13 05:53:59;;;;;;;43.13;25.02;;;17.60;99.90;;;;;;5078021;28;20083;-77
2022/08/13 05:56:28;;;;;;;39.58;25.10;;;17.60;99.90;;;;;;5060692;28;20095;-77
2022/08/13 05:58:55;;;;;;;45.60;24.20;;;17.60;99.90;;;;;;5038924;28;20578;-77
2022/08/13 06:04:10;;;;;;;54.88;27.40;;;17.70;99.90;;;;;;5068592;28;20036;-77
2022/08/13 06:06:40;;;;;;;49.58;26.33;;;17.70;99.90;;;;;;5076836;28;20041;-76
2022/08/13 06:09:09;;;;;;;42.15;24.48;;;17.80;99.90;;;;;;5057853;28;20110;-77
2022/08/13 06:11:39;;;;;;;32.47;20.00;;;17.90;99.90;;;;;;5070894;28;20045;-77
2022/08/13 06:14:06;;;;;;;30.55;20.02;;;18.00;99.90;;;;;;5075371;28;20047;-76
2022/08/13 06:16:35;;;;;;;33.25;21.33;;;18.00;99.90;;;;;;5069041;28;20049;-77
2022/08/13 06:19:03;;;;;;;31.65;20.17;;;18.00;99.90;;;;;;5056921;28;20040;-77
2022/08/13 06:21:30;;;;;;;64.35;33.78;;;18.00;99.90;;;;;;5051593;28;20067;-77
2022/08/13 06:23:59;;;;;;;73.13;36.30;;;17.90;99.90;;;;;;5076009;28;20041;-77
2022/08/13 06:26:29;;;;;;;71.57;37.72;;;18.00;99.90;;;;;;5075979;28;20056;-77
2022/08/13 06:29:01;;;;;;;75.30;39.63;;;17.90;99.90;;;;;;5064516;28;20040;-77
2022/08/13 06:31:31;;;;;;;75.50;37.55;;;18.00;99.90;;;;;;5061919;28;20045;-77
2022/08/13 06:33:58;;;;;;;74.82;38.13;;;18.00;99.90;;;;;;5055892;28;20045;-76
2022/08/13 06:36:29;;;;;;;78.80;39.53;;;18.00;99.90;;;;;;5072397;28;20049;-76
2022/08/13 06:39:02;;;;;;;79.78;42.22;;;18.00;99.90;;;;;;5078738;28;20076;-77
2022/08/13 06:41:31;;;;;;;83.57;40.60;;;18.00;99.90;;;;;;5060188;28;20044;-76
2022/08/13 06:43:59;;;;;;;75.72;38.33;;;18.10;99.90;;;;;;5078426;28;20036;-76
2022/08/13 06:46:29;;;;;;;69.78;37.25;;;18.20;99.90;;;;;;5055383;28;20049;-77
2022/08/13 06:48:59;;;;;;;68.85;36.00;;;18.20;99.90;;;;;;5046935;28;20110;-77
2022/08/13 06:51:26;;;;;;;71.88;35.67;;;18.30;99.90;;;;;;5036730;28;20059;-77
2022/08/13 06:53:55;;;;;;;71.13;37.08;;;18.50;99.90;;;;;;5036518;28;20102;-76
2022/08/13 06:56:27;;;;;;;67.32;35.90;;;18.40;99.90;;;;;;5055105;28;20041;-76
2022/08/13 06:58:58;;;;;;;64.63;33.97;;;18.60;99.90;;;;;;5054774;28;20468;-76
2022/08/13 07:01:27;;;;;;;62.90;33.90;;;18.70;99.90;;;;;;5054281;28;20084;-77
2022/08/13 07:03:56;;;;;;;56.20;31.85;;;18.70;99.90;;;;;;5058654;28;20045;-76
2022/08/13 07:06:26;;;;;;;63.50;33.72;;;18.80;99.90;;;;;;5054558;28;20128;-77
2022/08/13 07:08:56;;;;;;;62.28;33.45;;;19.00;99.90;;;;;;5050854;28;20055;-76
2022/08/13 07:11:27;;;;;;;65.65;38.10;;;19.30;99.90;;;;;;5054538;28;20044;-77
2022/08/13 07:13:56;;;;;;;65.45;39.05;;;19.50;99.90;;;;;;5054279;28;20466;-77
2022/08/13 07:16:27;;;;;;;63.42;36.50;;;19.80;99.90;;;;;;5059350;28;20045;-76
2022/08/13 07:18:55;;;;;;;65.97;39.17;;;20.20;99.90;;;;;;5074294;28;20102;-76
2022/08/13 07:21:24;;;;;;;70.20;43.33;;;20.20;99.90;;;;;;5039554;28;20045;-76
2022/08/13 07:23:53;;;;;;;63.00;37.40;;;20.20;99.90;;;;;;5056422;28;20512;-76
2022/08/13 07:26:22;;;;;;;59.33;35.97;;;20.20;99.90;;;;;;5057524;28;20051;-76
2022/08/13 07:28:51;;;;;;;58.72;35.65;;;20.10;99.90;;;;;;5064246;28;20472;-77
2022/08/13 07:31:26;;;;;;;57.03;35.13;;;20.10;99.90;;;;;;5057637;28;20060;-76
2022/08/13 07:33:55;;;;;;;57.72;35.28;;;20.20;99.90;;;;;;5057732;28;20498;-76
2022/08/13 07:36:24;;;;;;;64.97;41.25;;;20.10;99.90;;;;;;5066049;28;20064;-76
2022/08/13 07:38:52;;;;;;;62.95;38.10;;;20.20;99.90;;;;;;5077315;28;20044;-75
2022/08/13 07:41:21;;;;;;;62.28;38.13;;;20.30;99.90;;;;;;5077363;28;20036;-75
2022/08/13 07:43:50;;;;;;;51.05;33.15;;;20.40;99.90;;;;;;5081948;28;20071;-76
2022/08/13 07:46:19;;;;;;;52.90;32.80;;;20.50;99.90;;;;;;5076428;28;20054;-76
2022/08/13 07:48:49;;;;;;;55.70;34.97;;;20.30;99.90;;;;;;5074471;28;20044;-76
2022/08/13 07:51:20;;;;;;;52.50;33.90;;;20.40;99.90;;;;;;5043491;28;20060;-76
2022/08/13 07:53:48;;;;;;;48.13;32.03;;;20.40;99.90;;;;;;5036518;28;20132;-76
2022/08/13 07:56:20;;;;;;;48.13;32.50;;;20.50;99.90;;;;;;5053885;28;20047;-76
2022/08/13 07:58:47;;;;;;;45.72;29.98;;;20.60;99.90;;;;;;5054411;28;20037;-76
2022/08/13 08:01:18;;;;;;;45.88;33.22;;;20.60;99.90;;;;;;5053343;28;20036;-76
2022/08/13 08:03:47;;;;;;;49.03;33.50;;;20.40;99.90;;;;;;5035657;28;20095;-76
2022/08/13 08:06:16;;;;;;;42.50;29.42;;;20.50;99.90;;;;;;5036417;28;20060;-76
2022/08/13 08:08:43;;;;;;;42.90;30.48;;;20.60;99.90;;;;;;5051194;28;20041;-76
2022/08/13 08:12:30;;;;;;;40.92;28.23;;;20.60;99.90;;;;;;5035361;28;20045;-75
2022/08/13 08:14:00;;;;;;;42.53;30.75;;;21.20;99.90;;;;;;5051295;28;20060;-76
2022/08/13 08:16:31;;;;;;;32.28;25.45;;;21.90;99.90;;;;;;5063609;28;20033;-77
2022/08/13 08:18:59;;;;;;;25.98;18.85;;;22.60;99.90;;;;;;5063656;28;20511;-77
2022/08/13 08:21:28;;;;;;;22.73;18.02;;;23.10;99.90;;;;;;5054947;28;20396;-76
2022/08/13 08:23:57;;;;;;;23.55;18.83;;;23.60;99.90;;;;;;5053909;28;20041;-75
2022/08/13 08:26:27;;;;;;;31.20;23.13;;;23.90;99.90;;;;;;5038131;28;20492;-75
2022/08/13 08:28:55;;;;;;;35.08;29.13;;;23.40;99.90;;;;;;5056581;28;20499;-76
2022/08/13 08:31:23;;;;;;;28.50;22.83;;;23.40;99.90;;;;;;5041140;28;20132;-77
2022/08/13 08:33:56;;;;;;;34.72;26.23;;;23.70;99.90;;;;;;5032770;28;20052;-76
2022/08/13 08:36:23;;;;;;;31.58;25.05;;;23.90;99.90;;;;;;5040215;28;20106;-76
2022/08/13 08:44:25;;;;;;;36.17;28.77;;;24.60;99.90;;;;;;5060064;28;20040;-76
2022/08/13 08:46:56;;;;;;;29.05;22.00;;;25.10;99.90;;;;;;5073657;28;20451;-75
2022/08/13 08:49:26;;;;;;;46.85;37.60;;;25.10;99.90;;;;;;5045235;28;20124;-76
2022/08/13 08:51:54;;;;;;;45.80;32.03;;;24.90;99.90;;;;;;5051462;28;20514;-76
2022/08/13 08:54:23;;;;;;;36.33;27.02;;;24.90;99.90;;;;;;5051477;28;20496;-75
2022/08/13 08:56:54;;;;;;;36.15;26.38;;;24.60;99.90;;;;;;5052763;28;20456;-76
2022/08/13 08:59:23;;;;;;;50.85;36.45;;;24.20;99.90;;;;;;5053784;28;20037;-76
2022/08/13 09:01:55;;;;;;;43.72;30.98;;;24.30;99.90;;;;;;5052942;28;20041;-78
2022/08/13 09:04:25;;;;;;;36.50;27.73;;;24.30;99.90;;;;;;5052994;28;20048;-77
2022/08/13 09:06:57;;;;;;;41.53;30.20;;;24.30;99.90;;;;;;5040670;28;20040;-77
2022/08/13 09:09:26;;;;;;;53.85;40.78;;;24.10;99.90;;;;;;5061161;28;20051;-77
2022/08/13 09:11:55;;;;;;;30.48;24.10;;;24.30;99.90;;;;;;5056253;28;20119;-78
2022/08/13 09:14:30;;;;;;;36.67;26.45;;;24.50;99.90;;;;;;5057012;28;20095;-77
2022/08/13 09:16:59;;;;;;;29.23;22.83;;;24.50;99.90;;;;;;5050487;28;20049;-77
2022/08/13 09:19:28;;;;;;;25.00;19.42;;;24.60;99.90;;;;;;5068141;28;20055;-78
2022/08/13 09:21:58;;;;;;;29.73;24.23;;;24.60;99.90;;;;;;5055805;28;20047;-78
2022/08/13 09:24:25;;;;;;;33.33;26.08;;;24.80;99.90;;;;;;5055290;28;20142;-78
2022/08/13 09:26:55;;;;;;;27.58;22.95;;;25.10;99.90;;;;;;5042797;28;20102;-78
2022/08/13 09:29:24;;;;;;;24.92;21.80;;;25.40;99.90;;;;;;5051593;28;20159;-76
2022/08/13 09:31:58;;;;;;;26.13;20.45;;;25.70;99.90;;;;;;5072056;28;20041;-76
2022/08/13 09:34:26;;;;;;;27.98;21.40;;;25.90;99.90;;;;;;5057054;28;20052;-78
2022/08/13 09:36:57;;;;;;;28.33;22.33;;;26.00;99.90;;;;;;5074037;28;20171;-80
2022/08/13 09:39:33;;;;;;;26.00;19.33;;;26.30;99.90;;;;;;5070064;28;20042;-78
2022/08/13 09:42:05;;;;;;;26.35;19.60;;;26.10;99.90;;;;;;5032447;28;20468;-78
2022/08/13 09:44:32;;;;;;;27.02;21.25;;;26.00;99.90;;;;;;5051926;28;20044;-78
2022/08/13 09:47:01;;;;;;;29.88;22.40;;;26.10;99.90;;;;;;5049944;28;20135;-77
2022/08/13 09:49:29;;;;;;;32.42;25.92;;;26.30;99.90;;;;;;5055830;28;20049;-75
2022/08/13 09:51:58;;;;;;;27.10;23.42;;;26.20;99.90;;;;;;5042128;28;20045;-75
2022/08/13 09:54:25;;;;;;;29.77;25.17;;;26.30;99.90;;;;;;5068230;28;20083;-77
2022/08/13 09:56:53;;;;;;;24.75;20.63;;;26.30;99.90;;;;;;5049930;28;20058;-77
2022/08/13 09:59:22;;;;;;;32.03;23.20;;;26.40;99.90;;;;;;5079049;28;20075;-77
2022/08/13 10:01:50;;;;;;;30.50;21.75;;;26.40;99.90;;;;;;5064960;28;20044;-77
2022/08/13 10:04:18;;;;;;;28.70;21.67;;;26.20;99.90;;;;;;5052507;28;20045;-77
2022/08/13 10:06:46;;;;;;;23.02;18.27;;;26.40;99.90;;;;;;5053547;28;20456;-78
2022/08/13 10:09:15;;;;;;;22.08;17.40;;;26.60;99.90;;;;;;5042014;28;20049;-78
2022/08/13 10:11:42;;;;;;;26.95;18.95;;;26.70;99.90;;;;;;5057490;28;20393;-78
2022/08/13 10:14:10;;;;;;;29.80;21.95;;;26.30;99.90;;;;;;5055322;28;20044;-78
2022/08/13 10:16:37;;;;;;;23.77;18.25;;;26.10;99.90;;;;;;5054223;28;20095;-77
2022/08/13 10:19:08;;;;;;;22.65;16.83;;;26.20;99.90;;;;;;5066165;28;20045;-78
2022/08/13 10:21:35;;;;;;;23.30;18.17;;;26.30;99.90;;;;;;5063671;28;20037;-77
2022/08/13 10:24:03;;;;;;;25.02;20.52;;;26.40;99.90;;;;;;5056038;28;20040;-78
2022/08/13 10:26:32;;;;;;;26.00;21.00;;;26.40;99.90;;;;;;5040544;28;20411;-79
2022/08/13 10:29:09;;;;;;;22.38;19.48;;;26.60;99.90;;;;;;5061756;28;20056;-79
2022/08/13 10:31:37;;;;;;;22.50;18.50;;;26.50;99.90;;;;;;5060149;28;20042;-78
2022/08/13 10:34:05;;;;;;;25.92;21.33;;;26.50;99.90;;;;;;5057629;28;20040;-78
2022/08/13 10:36:34;;;;;;;18.25;14.65;;;26.80;99.90;;;;;;5056966;28;20407;-80
2022/08/13 10:39:02;;;;;;;21.40;16.70;;;26.50;99.90;;;;;;5059518;28;20048;-79
2022/08/13 10:41:29;;;;;;;19.45;15.77;;;25.90;99.90;;;;;;5032998;28;20124;-78
2022/08/13 10:44:00;;;;;;;18.08;15.13;;;25.30;99.90;;;;;;5077849;28;20447;-78
2022/08/13 10:46:28;;;;;;;18.88;16.88;;;24.70;99.90;;;;;;5071823;28;20455;-79
2022/08/13 10:48:56;;;;;;;16.60;14.65;;;24.60;99.90;;;;;;5048951;28;20049;-78
2022/08/13 10:51:23;;;;;;;14.77;13.27;;;24.50;99.90;;;;;;5053314;28;20056;-78
2022/08/13 10:53:58;;;;;;;16.13;13.57;;;24.40;99.90;;;;;;5058365;28;20071;-78
2022/08/13 10:56:28;;;;;;;12.52;11.23;;;24.00;99.90;;;;;;5037559;28;20049;-76
2022/08/13 10:58:59;;;;;;;14.35;12.90;;;24.20;99.90;;;;;;5066744;28;20221;-77
2022/08/13 11:01:27;;;;;;;12.55;11.25;;;24.30;99.90;;;;;;5074798;28;20094;-77
2022/08/13 11:03:58;;;;;;;11.10;10.00;;;24.60;99.90;;;;;;5054311;28;20547;-77
2022/08/13 11:06:27;;;;;;;14.15;12.18;;;24.80;99.90;;;;;;5072109;28;20051;-78
2022/08/13 11:08:57;;;;;;;14.25;12.85;;;24.70;99.90;;;;;;5071056;28;20055;-78
2022/08/13 11:11:25;;;;;;;11.95;10.60;;;24.90;99.90;;;;;;5056401;28;20086;-78
2022/08/13 11:13:52;;;;;;;15.32;13.50;;;25.60;99.90;;;;;;5075463;28;20517;-76
2022/08/13 11:19:14;;;;;;;14.70;13.18;;;26.50;99.90;;;;;;5017277;28;20128;-77
2022/08/13 11:21:46;;;;;;;11.25;9.57;;;26.50;99.90;;;;;;5042494;28;20057;-77
2022/08/13 11:24:14;;;;;;;11.88;10.77;;;26.10;99.90;;;;;;5043772;28;20037;-76
2022/08/13 11:26:41;;;;;;;10.73;9.68;;;25.60;99.90;;;;;;5048998;28;20057;-77
2022/08/13 11:29:09;;;;;;;11.25;9.32;;;25.60;99.90;;;;;;5036098;28;20469;-77
2022/08/13 11:31:38;;;;;;;12.35;9.95;;;25.30;99.90;;;;;;5074545;28;20480;-76
2022/08/13 11:34:05;;;;;;;11.05;9.95;;;25.00;99.90;;;;;;5074122;28;20048;-76
2022/08/13 11:36:34;;;;;;;11.68;10.48;;;24.70;99.90;;;;;;5073607;28;20048;-77
2022/08/13 11:39:01;;;;;;;12.35;10.25;;;25.10;99.90;;;;;;5073753;28;20123;-76
2022/08/13 11:41:29;;;;;;;11.48;10.48;;;25.50;99.90;;;;;;5073662;28;20442;-77
2022/08/13 11:43:56;;;;;;;12.15;10.93;;;25.40;99.90;;;;;;5074239;28;20044;-76
2022/08/13 11:46:23;;;;;;;13.35;12.15;;;25.50;99.90;;;;;;5055901;28;20052;-77
2022/08/13 11:48:52;;;;;;;14.00;12.73;;;25.80;99.90;;;;;;5073937;28;20453;-77
2022/08/13 11:51:19;;;;;;;11.77;10.60;;;26.10;99.90;;;;;;5073549;28;20049;-76
2022/08/13 11:53:47;;;;;;;13.15;11.75;;;26.10;99.90;;;;;;5073231;28;20048;-76
2022/08/13 11:56:14;;;;;;;12.18;10.88;;;25.60;99.90;;;;;;5040489;28;20049;-77
2022/08/13 11:58:42;;;;;;;11.82;10.50;;;25.40;99.90;;;;;;5054008;28;20541;-76
2022/08/13 12:01:09;;;;;;;10.98;9.98;;;25.00;99.90;;;;;;5053784;28;20048;-76
2022/08/13 12:03:39;;;;;;;15.35;13.35;;;24.90;99.90;;;;;;5053328;28;20056;-75
2022/08/13 12:06:08;;;;;;;12.63;11.32;;;25.00;99.90;;;;;;5053559;28;20041;-78
2022/08/13 12:08:35;;;;;;;13.75;11.60;;;25.00;99.90;;;;;;5053464;28;20396;-76
2022/08/13 12:11:03;;;;;;;11.60;10.40;;;25.20;99.90;;;;;;5037189;28;20037;-75
2022/08/13 12:13:30;;;;;;;10.02;9.02;;;25.10;99.90;;;;;;5053074;28;20059;-76
2022/08/13 12:15:58;;;;;;;10.15;9.15;;;24.80;99.90;;;;;;5053335;28;20054;-77
2022/08/13 12:18:25;;;;;;;10.75;9.65;;;24.80;99.90;;;;;;5036808;28;20569;-77
2022/08/13 12:20:52;;;;;;;12.10;10.35;;;24.70;99.90;;;;;;5037618;28;20044;-76
2022/08/13 12:23:21;;;;;;;11.05;9.95;;;24.60;99.90;;;;;;5055872;28;20037;-76
2022/08/13 12:25:48;;;;;;;12.50;11.20;;;25.10;99.90;;;;;;5055410;28;20076;-76
2022/08/13 12:28:19;;;;;;;13.70;11.25;;;25.40;99.90;;;;;;5037661;28;20071;-76
2022/08/13 12:30:48;;;;;;;9.95;9.05;;;25.60;99.90;;;;;;5075437;28;20040;-77
2022/08/13 12:33:16;;;;;;;13.13;9.73;;;25.50;99.90;;;;;;5073770;28;20067;-77
2022/08/13 12:35:43;;;;;;;11.90;9.15;;;25.10;99.90;;;;;;5075223;28;20121;-77
2022/08/13 12:38:13;;;;;;;9.85;8.85;;;24.80;99.90;;;;;;5073454;28;20048;-77
2022/08/13 12:40:44;;;;;;;11.80;10.60;;;24.70;99.90;;;;;;5073191;28;20052;-77
2022/08/13 12:43:11;;;;;;;14.13;10.05;;;24.80;99.90;;;;;;5072988;28;20048;-77
2022/08/13 12:45:41;;;;;;;10.90;9.60;;;24.80;99.90;;;;;;5073630;28;20079;-77
2022/08/13 12:48:10;;;;;;;10.70;9.70;;;24.70;99.90;;;;;;5076314;28;20392;-77
2022/08/13 12:50:39;;;;;;;10.95;9.90;;;24.60;99.90;;;;;;5077161;28;20071;-77
2022/08/13 12:53:07;;;;;;;12.02;10.90;;;24.40;99.90;;;;;;5077012;28;20480;-77
2022/08/13 12:55:35;;;;;;;10.40;9.40;;;24.30;99.90;;;;;;5067679;28;20045;-77